Time;durP1;ratioP1;P1;durP2;ratioP2;P2;SDS_P1;SDS_P2;PMS_P1;PMS_P2;Temp;Humidity;BMP_temperature;BMP_pressure;BME280_temperature;BME280_humidity;BME280_pressure;Samples;Min_cycle;Max_cycle;Signal;HPM_P1;HPM_P2
2024/04/23 00:00:47;;;;;;;7.17;3.90;;;;;;;-145.69;67.35;52353.28;5490267;26;20222;-76
2024/04/23 00:03:13;;;;;;;7.30;3.97;;;;;;;-145.69;67.48;52349.31;5489506;26;20257;-75
2024/04/23 00:05:41;;;;;;;8.70;4.50;;;;;;;-145.69;69.01;52373.09;5489952;26;20766;-76
2024/04/23 00:08:07;;;;;;;7.27;4.07;;;;;;;-145.69;68.40;52355.28;5489935;26;20318;-75
2024/04/23 00:10:38;;;;;;;7.43;4.30;;;;;;;-145.69;68.52;52369.13;5524925;26;20569;-77
2024/04/23 00:13:03;;;;;;;9.10;4.30;;;;;;;-145.69;67.99;52343.38;5526828;26;20259;-75
2024/04/23 00:15:31;;;;;;;8.13;4.00;;;;;;;-145.69;67.81;52347.34;5505446;26;20701;-76
2024/04/23 00:17:57;;;;;;;8.27;3.90;;;;;;;-145.69;67.99;52349.31;5489771;26;20222;-76
2024/04/23 00:20:25;;;;;;;7.67;4.30;;;;;;;-145.69;68.39;52335.47;5489024;26;20697;-79
2024/04/23 00:22:51;;;;;;;8.80;3.97;;;;;;;-145.69;68.01;52375.06;5489269;26;20222;-78
2024/04/23 00:25:19;;;;;;;8.17;4.10;;;;;;;-145.69;68.02;52357.25;5515219;25;20778;-75
2024/04/23 00:27:47;;;;;;;12.60;4.00;;;;;;;-145.69;68.09;52341.41;5526368;26;20272;-78
2024/04/23 00:30:15;;;;;;;5.83;3.40;;;;;;;-145.69;67.90;52373.09;5526437;26;20225;-78
2024/04/23 00:32:40;;;;;;;7.77;4.17;;;;;;;-145.69;67.63;52361.22;5524893;26;20221;-77
2024/04/23 00:35:09;;;;;;;6.50;3.50;;;;;;;-145.69;67.71;52377.06;5526389;26;20233;-76
2024/04/23 00:37:34;;;;;;;7.27;3.93;;;;;;;-145.69;67.72;52325.56;5525407;26;20752;-77
2024/04/23 00:40:02;;;;;;;10.10;4.50;;;;;;;-145.69;67.97;52341.41;5525815;26;20329;-76
2024/04/23 00:42:28;;;;;;;7.53;4.23;;;;;;;-145.69;67.66;52359.22;5526307;26;20260;-76
2024/04/23 00:44:58;;;;;;;7.90;4.70;;;;;;;-145.69;67.84;52371.13;5526370;26;20225;-76
2024/04/23 00:47:24;;;;;;;9.70;4.10;;;;;;;-145.69;67.96;52355.28;5525478;26;20767;-75
2024/04/23 00:49:53;;;;;;;9.63;4.13;;;;;;;-145.69;67.56;52383.00;5499760;26;20322;-77
2024/04/23 00:52:19;;;;;;;7.87;4.30;;;;;;;-145.69;67.89;52357.25;5488865;26;20223;-76
2024/04/23 00:54:48;;;;;;;8.13;4.17;;;;;;;-145.69;67.83;52377.06;5489170;26;20315;-76
2024/04/23 00:57:13;;;;;;;11.40;5.00;;;;;;;-145.69;67.40;52369.13;5488791;26;20222;-76
2024/04/23 00:59:42;;;;;;;7.13;4.00;;;;;;;-145.69;67.65;52371.13;5488606;26;20223;-75
2024/04/23 01:02:10;;;;;;;7.33;4.53;;;;;;;-145.69;68.00;52375.06;5489136;26;20222;-77
2024/04/23 01:04:38;;;;;;;9.33;4.67;;;;;;;-145.69;67.54;52373.09;5488515;26;20234;-78
2024/04/23 01:07:03;;;;;;;7.67;4.47;;;;;;;-145.69;68.12;52335.47;5490064;26;20223;-77
2024/04/23 01:09:32;;;;;;;7.77;4.63;;;;;;;-145.69;67.88;52375.06;5507759;26;20233;-78
2024/04/23 01:11:57;;;;;;;6.93;4.17;;;;;;;-145.69;67.67;52345.38;5526002;26;20221;-77
2024/04/23 01:14:26;;;;;;;7.47;4.40;;;;;;;-145.69;67.35;52386.97;5525678;26;20229;-77
2024/04/23 01:16:51;;;;;;;7.07;4.17;;;;;;;-145.69;67.57;52359.22;5525675;26;20346;-78
2024/04/23 01:19:28;;;;;;;9.63;4.70;;;;;;;-145.69;67.66;52369.13;5525644;26;20237;-78
2024/04/23 01:21:59;;;;;;;7.40;3.63;;;;;;;-145.69;67.85;52381.00;5524994;26;20692;-78
2024/04/23 01:24:33;;;;;;;7.30;4.43;;;;;;;-145.69;68.26;52365.16;5490037;26;20278;-78
2024/04/23 01:27:02;;;;;;;6.80;4.23;;;;;;;-145.69;68.80;52388.94;5488821;26;20234;-78
2024/04/23 01:29:32;;;;;;;8.43;4.40;;;;;;;-145.69;68.21;52361.22;5488336;26;20385;-79
2024/04/23 01:31:59;;;;;;;7.40;4.20;;;;;;;-145.69;68.22;52369.13;5488421;26;20218;-78
2024/04/23 01:34:29;;;;;;;11.00;4.57;;;;;;;-145.69;68.63;52353.28;5487791;26;21080;-76
2024/04/23 01:36:56;;;;;;;7.97;4.43;;;;;;;-145.69;69.01;52365.16;5486995;26;20759;-76
2024/04/23 01:39:25;;;;;;;10.00;4.50;;;;;;;-145.69;68.96;52377.06;5502479;26;20276;-76
2024/04/23 01:41:51;;;;;;;6.07;4.07;;;;;;;-145.69;68.35;52394.88;5492040;26;20265;-78
2024/04/23 01:44:22;;;;;;;8.97;4.83;;;;;;;-145.69;68.73;52383.00;5524917;26;20573;-76
2024/04/23 01:46:47;;;;;;;5.93;4.10;;;;;;;-145.69;68.83;52365.16;5525036;26;20221;-79
2024/04/23 01:49:16;;;;;;;8.60;4.63;;;;;;;-145.69;68.53;52369.13;5524484;26;20546;-79
2024/04/23 01:51:41;;;;;;;7.90;4.43;;;;;;;-145.69;67.86;52383.00;5524609;26;20221;-78
2024/04/23 01:54:09;;;;;;;7.83;4.07;;;;;;;-145.69;68.05;52396.84;5525125;26;20823;-77
2024/04/23 01:56:35;;;;;;;8.50;4.07;;;;;;;-145.69;68.32;52369.13;5522565;26;20312;-79
2024/04/23 01:59:03;;;;;;;6.63;4.23;;;;;;;-145.69;68.22;52375.06;5524121;26;20561;-77
2024/04/23 02:01:37;;;;;;;7.03;4.40;;;;;;;-145.69;68.27;52388.94;5524622;26;20221;-78
2024/04/23 02:04:06;;;;;;;8.57;5.13;;;;;;;-145.69;68.55;52379.03;5524873;26;20252;-78
2024/04/23 02:06:32;;;;;;;10.23;5.30;;;;;;;-145.69;69.26;52381.00;5524156;26;20271;-77
2024/04/23 02:09:01;;;;;;;9.07;5.13;;;;;;;-145.69;69.24;52400.81;5524323;25;20712;-78
2024/04/23 02:11:27;;;;;;;10.60;4.77;;;;;;;-145.69;69.17;52377.06;5524816;26;20218;-79
2024/04/23 02:13:55;;;;;;;7.53;4.30;;;;;;;-145.69;68.94;52377.06;5512735;26;20281;-78
2024/04/23 02:16:20;;;;;;;9.83;4.60;;;;;;;-145.69;68.69;52363.19;5487205;26;20336;-76
2024/04/23 02:18:51;;;;;;;11.97;5.57;;;;;;;-145.69;69.26;52373.09;5487428;26;20273;-78
2024/04/23 02:21:16;;;;;;;8.23;4.70;;;;;;;-145.69;68.92;52355.28;5487749;26;20330;-78
2024/04/23 02:23:45;;;;;;;11.00;5.80;;;;;;;-145.69;69.88;52432.50;5487575;26;20227;-78
2024/04/23 02:26:10;;;;;;;12.03;6.23;;;;;;;-145.69;69.88;52363.19;5486934;26;20231;-78
2024/04/23 02:28:38;;;;;;;9.13;5.67;;;;;;;-145.69;70.49;52367.16;5484643;26;20580;-78
2024/04/23 02:31:04;;;;;;;12.37;6.40;;;;;;;-145.69;70.31;52357.25;5503042;26;20229;-79
2024/04/23 02:33:32;;;;;;;14.17;7.23;;;;;;;-145.69;70.65;52357.25;5524544;26;20225;-79
2024/04/23 02:36:00;;;;;;;14.10;6.83;;;;;;;-145.69;70.41;52359.22;5524229;26;20544;-79
2024/04/23 02:38:28;;;;;;;15.10;7.30;;;;;;;-145.69;70.13;52371.13;5523854;26;20808;-76
2024/04/23 02:40:54;;;;;;;15.20;7.73;;;;;;;-145.69;69.79;52337.44;5524264;26;20256;-77
2024/04/23 02:43:22;;;;;;;17.67;8.60;;;;;;;-145.69;70.24;52367.16;5523546;26;20233;-78
2024/04/23 02:45:47;;;;;;;16.80;8.27;;;;;;;-145.69;70.38;52341.41;5523669;26;20271;-76
2024/04/23 02:48:15;;;;;;;18.03;8.63;;;;;;;-145.69;70.53;52381.00;5525177;26;20225;-77
2024/04/23 02:50:41;;;;;;;27.17;10.07;;;;;;;-145.69;70.61;52341.41;5527705;26;20229;-76
2024/04/23 02:53:11;;;;;;;19.10;9.27;;;;;;;-145.69;70.45;52333.47;5527762;26;20297;-77
2024/04/23 02:55:37;;;;;;;27.17;9.80;;;;;;;-145.69;70.45;52341.41;5527955;26;20316;-76
2024/04/23 02:58:05;;;;;;;25.43;10.13;;;;;;;-145.69;69.97;52341.41;5527339;26;20225;-77
2024/04/23 03:00:31;;;;;;;25.00;10.33;;;;;;;-145.69;70.24;52363.19;5527198;26;20755;-77
2024/04/23 03:02:59;;;;;;;21.40;10.63;;;;;;;-145.69;70.46;52345.38;5527121;26;20306;-78
2024/04/23 03:05:24;;;;;;;24.53;11.83;;;;;;;-145.69;70.62;52357.25;5507015;26;20218;-77
2024/04/23 03:07:52;;;;;;;23.80;11.47;;;;;;;-145.69;70.42;52381.00;5490568;26;20269;-77
2024/04/23 03:10:21;;;;;;;22.10;10.50;;;;;;;-145.69;70.46;52325.56;5490701;26;20697;-77
2024/04/23 03:12:49;;;;;;;27.97;11.60;;;;;;;-145.69;70.38;52341.41;5490175;26;20295;-77
2024/04/23 03:15:14;;;;;;;21.47;10.60;;;;;;;-145.69;70.48;52359.22;5490428;26;20222;-77
2024/04/23 03:17:42;;;;;;;20.10;10.43;;;;;;;-145.69;70.28;52349.31;5490699;26;20249;-76
2024/04/23 03:20:08;;;;;;;27.53;10.83;;;;;;;-145.69;70.27;52367.16;5490289;26;20223;-77
2024/04/23 03:22:36;;;;;;;31.57;10.20;;;;;;;-145.69;70.36;52363.19;5490972;26;20223;-76
2024/04/23 03:25:02;;;;;;;27.17;10.93;;;;;;;-145.69;70.21;52315.66;5490241;26;20238;-76
2024/04/23 03:27:33;;;;;;;25.20;11.30;;;;;;;-145.69;70.76;52357.25;5490635;26;20269;-76
2024/04/23 03:29:58;;;;;;;24.77;11.17;;;;;;;-145.69;70.28;52363.19;5507892;26;20260;-78
2024/04/23 03:32:26;;;;;;;21.70;10.23;;;;;;;-145.69;70.26;52349.31;5526298;26;20225;-77
2024/04/23 03:34:52;;;;;;;22.37;10.10;;;;;;;-145.69;70.31;52365.16;5527239;26;20279;-75
2024/04/23 03:37:20;;;;;;;25.07;11.50;;;;;;;-145.69;70.48;52369.13;5526946;25;20290;-77
2024/04/23 03:39:48;;;;;;;35.93;11.13;;;;;;;-145.69;70.57;52371.13;5525405;26;20218;-77
2024/04/23 03:42:16;;;;;;;22.83;11.67;;;;;;;-145.69;70.31;52357.25;5525557;26;20229;-78
2024/04/23 03:44:47;;;;;;;33.30;11.57;;;;;;;-145.69;70.29;52363.19;5527279;26;20252;-77
2024/04/23 03:47:15;;;;;;;27.97;11.47;;;;;;;-145.69;70.60;52384.97;5527091;26;20304;-78
2024/04/23 03:49:44;;;;;;;24.73;12.00;;;;;;;-145.69;70.93;52331.50;5527036;26;20298;-79
2024/04/23 03:52:10;;;;;;;29.53;11.63;;;;;;;-145.69;70.60;52351.31;5526743;26;20315;-79
2024/04/23 03:54:39;;;;;;;29.47;11.13;;;;;;;-145.69;70.16;52357.25;5526786;26;20225;-79
2024/04/23 03:57:04;;;;;;;43.77;11.30;;;;;;;-145.69;69.88;52349.31;5496431;26;20348;-78
2024/04/23 03:59:32;;;;;;;32.87;11.00;;;;;;;-145.69;69.69;52369.13;5505660;26;20237;-78
2024/04/23 04:07:31;;;;;;;30.53;11.87;;;;;;;-145.69;69.89;52386.97;5529488;26;20685;-79
2024/04/23 04:09:59;;;;;;;25.10;11.47;;;;;;;-145.69;70.75;52349.31;5526182;26;20286;-77
2024/04/23 04:12:27;;;;;;;32.70;12.83;;;;;;;-145.69;71.26;52355.28;5521818;26;20248;-79
2024/04/23 04:14:53;;;;;;;22.70;11.67;;;;;;;-145.69;71.07;52367.16;5489223;26;20303;-75
2024/04/23 04:17:24;;;;;;;33.60;13.30;;;;;;;-145.69;70.44;52357.25;5489262;26;20222;-77
2024/04/23 04:19:49;;;;;;;31.30;12.80;;;;;;;-145.69;70.46;52361.22;5489896;26;20260;-76
2024/04/23 04:22:17;;;;;;;25.70;12.00;;;;;;;-145.69;70.80;52365.16;5489898;26;20753;-77
2024/04/23 04:24:43;;;;;;;36.17;12.43;;;;;;;-145.69;70.91;52361.22;5489761;26;20290;-76
2024/04/23 04:27:12;;;;;;;26.17;13.07;;;;;;;-145.69;70.68;52317.66;5489396;26;20331;-77
2024/04/23 04:29:38;;;;;;;22.30;11.47;;;;;;;-145.69;70.94;52361.22;5499047;26;20273;-78
2024/04/23 04:32:10;;;;;;;32.13;13.00;;;;;;;-145.69;70.68;52353.28;5516676;26;20720;-76
2024/04/23 04:34:38;;;;;;;39.53;11.40;;;;;;;-145.69;70.72;52377.06;5526506;26;20794;-76
2024/04/23 04:37:06;;;;;;;39.80;13.33;;;;;;;-145.69;70.58;52357.25;5525673;26;20234;-77
2024/04/23 04:39:36;;;;;;;26.63;11.80;;;;;;;-145.69;70.56;52349.31;5526073;26;20221;-76
2024/04/23 04:42:04;;;;;;;28.80;11.63;;;;;;;-145.69;70.88;52377.06;5526396;26;20225;-76
2024/04/23 04:44:29;;;;;;;36.30;12.00;;;;;;;-145.69;70.78;52321.59;5526321;26;20264;-76
2024/04/23 04:46:57;;;;;;;30.47;12.07;;;;;;;-145.69;71.12;52363.19;5513270;26;20234;-76
2024/04/23 04:49:23;;;;;;;25.37;11.67;;;;;;;-145.69;70.53;52381.00;5489160;26;20697;-78
2024/04/23 04:51:54;;;;;;;27.50;11.93;;;;;;;-145.69;70.21;52353.28;5489017;26;20245;-75
2024/04/23 04:54:19;;;;;;;24.67;12.53;;;;;;;-145.69;70.13;52373.09;5488897;26;20226;-78
2024/04/23 04:56:48;;;;;;;28.47;13.37;;;;;;;-145.69;70.16;52365.16;5489144;26;20226;-77
2024/04/23 04:59:14;;;;;;;22.90;11.00;;;;;;;-145.69;69.80;52390.91;5495872;26;20337;-78
2024/04/23 05:01:42;;;;;;;21.27;11.07;;;;;;;-145.69;70.02;52353.28;5524584;26;20237;-78
2024/04/23 05:04:09;;;;;;;20.90;11.10;;;;;;;-145.69;69.87;52361.22;5510258;26;20264;-79
2024/04/23 05:06:38;;;;;;;25.53;10.40;;;;;;;-145.69;69.87;52343.38;5488835;26;20218;-78
2024/04/23 05:09:06;;;;;;;25.67;11.60;;;;;;;-145.69;69.36;52337.44;5499437;26;20267;-78
2024/04/23 05:11:34;;;;;;;23.37;11.30;;;;;;;-145.69;69.26;52365.16;5524080;26;20226;-78
2024/04/23 05:14:00;;;;;;;26.33;11.80;;;;;;;-145.69;68.98;52361.22;5525942;26;20233;-78
2024/04/23 05:16:28;;;;;;;22.03;10.73;;;;;;;-145.69;69.08;52381.00;5525467;26;20225;-76
2024/04/23 05:18:53;;;;;;;25.70;11.90;;;;;;;-145.69;68.52;52365.16;5525545;26;20617;-78
2024/04/23 05:21:22;;;;;;;21.07;11.17;;;;;;;-145.69;68.29;52343.38;5506951;26;20223;-76
2024/04/23 05:23:47;;;;;;;24.93;11.00;;;;;;;-145.69;67.84;52369.13;5488837;26;20709;-76
2024/04/23 05:26:21;;;;;;;19.00;10.30;;;;;;;-145.69;66.94;52343.38;5488489;26;20280;-77
2024/04/23 05:28:47;;;;;;;22.67;10.93;;;;;;;-145.69;67.24;52357.25;5487930;26;20273;-76
2024/04/23 05:33:59;;;;;;;19.43;9.87;;;;;;;-145.69;66.56;52353.28;5528119;26;20305;-76
2024/04/23 05:36:27;;;;;;;22.30;9.83;;;;;;;-145.69;66.68;52335.47;5525194;26;20225;-76
2024/04/23 05:38:56;;;;;;;23.03;10.83;;;;;;;-145.69;66.98;52357.25;5498131;26;20265;-76
2024/04/23 05:41:27;;;;;;;21.80;10.97;;;;;;;-145.69;64.41;52333.47;5503715;26;20238;-77
2024/04/23 05:43:55;;;;;;;23.93;10.53;;;;;;;-145.69;65.12;52351.31;5524838;26;20225;-76
2024/04/23 05:46:25;;;;;;;21.77;10.33;;;;;;;-145.69;64.90;52361.22;5524673;26;20225;-77
2024/04/23 05:49:30;;;;;;;20.43;10.70;;;;;;;-145.69;64.99;52345.38;5525427;26;20222;-76
2024/04/23 05:52:36;;;;;;;17.70;9.37;;;;;;;-145.69;65.48;52363.19;5525343;26;20305;-78
2024/04/23 05:55:30;;;;;;;19.23;9.50;;;;;;;-145.69;63.65;52337.44;5510365;26;20231;-79
2024/04/23 05:57:59;;;;;;;16.13;9.53;;;;;;;-145.69;64.69;52345.38;5488399;26;20241;-77
2024/04/23 06:00:28;;;;;;;18.83;10.63;;;;;;;-145.69;64.41;52357.25;5508272;26;20328;-77
2024/04/23 06:02:53;;;;;;;20.80;10.23;;;;;;;-145.69;64.34;52345.38;5524634;26;20283;-77
2024/04/23 06:05:24;;;;;;;21.67;9.27;;;;;;;-145.69;63.59;52347.34;5524721;26;20285;-76
2024/04/23 06:07:50;;;;;;;17.83;8.73;;;;;;;-145.69;62.45;52369.13;5524870;26;20338;-75
2024/04/23 06:10:20;;;;;;;17.27;9.17;;;;;;;-145.69;63.64;52349.31;5524869;26;20230;-76
2024/04/23 06:12:46;;;;;;;18.43;9.40;;;;;;;-145.69;63.68;52347.34;5499195;26;20732;-76
2024/04/23 06:15:17;;;;;;;17.40;8.87;;;;;;;-145.69;62.94;52327.53;5488004;26;20234;-75
2024/04/23 06:17:43;;;;;;;17.23;10.07;;;;;;;-145.69;62.16;52327.53;5487788;26;20667;-78
2024/04/23 06:20:11;;;;;;;17.87;9.00;;;;;;;-145.69;62.20;52327.53;5487987;26;20222;-77
2024/04/23 06:22:39;;;;;;;17.43;9.70;;;;;;;-145.69;61.50;52339.44;5489535;26;20222;-77
2024/04/23 06:25:10;;;;;;;15.97;8.63;;;;;;;-145.69;61.67;52323.59;5490497;26;20992;-77
2024/04/23 06:27:37;;;;;;;21.87;9.70;;;;;;;-145.69;61.05;52359.22;5491244;26;20227;-77
2024/04/23 06:30:07;;;;;;;18.00;9.43;;;;;;;-145.69;60.16;52317.66;5506695;26;20260;-77
2024/04/23 06:32:35;;;;;;;16.47;8.40;;;;;;;-145.69;59.75;52329.53;5491205;26;20289;-77
2024/04/23 06:35:04;;;;;;;17.13;9.17;;;;;;;-145.69;60.56;52321.59;5491152;26;20226;-77
2024/04/23 06:37:30;;;;;;;16.07;8.93;;;;;;;-145.69;60.29;52329.53;5491354;26;20223;-76
2024/04/23 06:39:58;;;;;;;16.97;10.00;;;;;;;-145.69;58.73;52331.50;5491206;26;20326;-77
2024/04/23 06:42:24;;;;;;;14.20;8.30;;;;;;;-145.69;60.05;52317.66;5490464;26;20226;-76
2024/04/23 06:44:52;;;;;;;17.77;10.30;;;;;;;-145.69;59.61;52321.59;5491182;26;20222;-76
2024/04/23 06:47:17;;;;;;;20.13;10.30;;;;;;;-145.69;59.37;52303.78;5524095;26;20256;-76
2024/04/23 06:49:48;;;;;;;18.90;10.00;;;;;;;-145.69;58.56;52289.91;5527574;26;20233;-77
2024/04/23 06:52:16;;;;;;;18.73;10.07;;;;;;;-145.69;58.30;52307.75;5528293;26;20782;-77
2024/04/23 06:54:44;;;;;;;16.30;9.33;;;;;;;-145.69;58.51;52309.72;5527982;26;20313;-76
2024/04/23 06:57:10;;;;;;;23.93;10.37;;;;;;;-145.69;57.97;52283.97;5527536;26;20560;-76
2024/04/23 06:59:42;;;;;;;17.57;8.80;;;;;;;-145.69;57.45;52319.63;5526289;26;20289;-76
2024/04/23 07:02:08;;;;;;;14.70;8.90;;;;;;;-145.69;57.66;52315.66;5526886;26;20222;-77
2024/04/23 07:04:36;;;;;;;15.63;9.67;;;;;;;-145.69;55.93;52303.78;5490366;26;20323;-76
2024/04/23 07:07:05;;;;;;;16.30;9.53;;;;;;;-145.69;56.03;52301.81;5490137;26;20671;-76
2024/04/23 07:09:33;;;;;;;21.47;9.47;;;;;;;-145.69;54.84;52289.91;5490743;26;20226;-76
2024/04/23 07:11:58;;;;;;;15.90;9.70;;;;;;;-145.69;54.83;52319.63;5490375;26;20223;-76
2024/04/23 07:14:26;;;;;;;16.47;9.73;;;;;;;-145.69;55.46;52327.53;5490659;26;20230;-76
2024/04/23 07:16:52;;;;;;;16.77;9.93;;;;;;;-145.69;55.15;52266.16;5490017;26;20223;-77
2024/04/23 07:19:20;;;;;;;14.87;8.97;;;;;;;-145.69;54.88;52274.06;5491658;26;20269;-77
2024/04/23 07:21:46;;;;;;;13.80;8.47;;;;;;;-145.69;54.28;52272.09;5490746;26;20303;-76
2024/04/23 07:24:16;;;;;;;18.60;8.70;;;;;;;-145.69;53.68;52309.72;5490472;26;20249;-76
2024/04/23 07:26:42;;;;;;;14.90;8.27;;;;;;;-145.69;53.95;52270.13;5490594;26;20276;-76
2024/04/23 07:29:10;;;;;;;16.27;9.17;;;;;;;-145.69;54.25;52303.78;5489933;26;20230;-76
2024/04/23 07:31:35;;;;;;;16.53;8.97;;;;;;;-145.69;53.83;52341.41;5526329;26;20605;-77
2024/04/23 07:34:04;;;;;;;16.70;8.50;;;;;;;-145.69;54.59;52309.72;5525691;26;20381;-77
2024/04/23 07:36:29;;;;;;;13.33;7.80;;;;;;;-145.69;54.37;52317.66;5520220;26;20222;-76
2024/04/23 07:38:57;;;;;;;13.20;8.50;;;;;;;-145.69;53.25;52297.84;5490295;26;20226;-76
2024/04/23 07:41:25;;;;;;;11.77;7.67;;;;;;;-145.69;52.98;52256.25;5489958;26;20226;-76
2024/04/23 07:43:54;;;;;;;14.93;8.07;;;;;;;-145.69;52.62;52262.19;5526173;26;20225;-76
2024/04/23 07:46:19;;;;;;;14.13;7.40;;;;;;;-145.69;52.04;52278.03;5526896;26;20256;-77
2024/04/23 07:48:47;;;;;;;14.03;8.10;;;;;;;-145.69;52.11;52282.00;5527127;26;20229;-77
2024/04/23 07:51:13;;;;;;;14.77;8.20;;;;;;;-145.69;52.71;52295.84;5526802;26;20719;-77
2024/04/23 07:53:41;;;;;;;11.63;7.00;;;;;;;-145.69;52.84;52283.97;5518338;26;20269;-76
2024/04/23 07:56:09;;;;;;;9.77;5.87;;;;;;;-145.69;50.15;52278.03;5490164;26;20717;-77
2024/04/23 07:58:39;;;;;;;10.47;5.87;;;;;;;-145.69;49.23;52262.19;5489357;26;20572;-76
2024/04/23 08:01:05;;;;;;;12.70;6.50;;;;;;;-145.69;48.64;52278.03;5516414;26;20230;-76
2024/04/23 08:03:34;;;;;;;8.90;6.00;;;;;;;-145.69;48.32;52285.97;5527140;26;20334;-76
2024/04/23 08:06:02;;;;;;;10.73;5.97;;;;;;;-145.69;48.69;52289.91;5526368;26;20229;-77
2024/04/23 08:08:32;;;;;;;13.07;6.17;;;;;;;-145.69;49.16;52282.00;5526562;26;20263;-76
2024/04/23 08:10:58;;;;;;;10.97;5.83;;;;;;;-145.69;47.17;52258.22;5512172;26;20350;-77
2024/04/23 08:13:27;;;;;;;10.33;5.70;;;;;;;-145.69;47.48;52266.16;5489444;26;20550;-76
2024/04/23 08:15:58;;;;;;;10.47;5.80;;;;;;;-145.69;46.23;52278.03;5489515;26;20218;-77
2024/04/23 08:18:26;;;;;;;9.80;5.53;;;;;;;-145.69;48.46;52274.06;5489609;26;20223;-77
2024/04/23 08:20:52;;;;;;;7.60;4.77;;;;;;;-145.69;48.66;52282.00;5489902;26;20299;-78
2024/04/23 08:23:20;;;;;;;8.43;5.50;;;;;;;-145.69;46.43;52282.00;5489789;26;20226;-76
2024/04/23 08:25:46;;;;;;;9.03;5.47;;;;;;;-145.69;46.08;52262.19;5488999;26;20617;-78
2024/04/23 08:28:15;;;;;;;10.30;5.80;;;;;;;-145.69;46.46;52276.06;5500598;26;20657;-76
2024/04/23 08:30:40;;;;;;;8.17;5.77;;;;;;;-145.69;46.74;52289.91;5525717;26;20321;-76
2024/04/23 08:33:11;;;;;;;9.67;5.47;;;;;;;-145.69;47.38;52280.00;5526063;26;20226;-76
2024/04/23 08:35:36;;;;;;;10.77;5.87;;;;;;;-145.69;48.15;52274.06;5526410;26;20222;-77
2024/04/23 08:38:05;;;;;;;10.37;5.37;;;;;;;-145.69;49.46;52282.00;5526421;26;20264;-76
2024/04/23 08:40:30;;;;;;;11.93;5.73;;;;;;;-145.69;48.62;52246.34;5526460;26;20218;-78
2024/04/23 08:43:06;;;;;;;8.27;5.50;;;;;;;-145.69;46.55;52246.34;5513770;26;20280;-79
2024/04/23 08:45:34;;;;;;;9.40;5.70;;;;;;;-145.69;45.32;52262.19;5496749;26;20688;-78
2024/04/23 08:48:03;;;;;;;11.13;5.50;;;;;;;-145.69;44.45;52222.59;5489974;26;20253;-77
2024/04/23 08:50:34;;;;;;;8.90;5.20;;;;;;;-145.69;44.30;52254.28;5489405;26;20218;-77
2024/04/23 08:53:05;;;;;;;9.23;5.73;;;;;;;-145.69;44.05;52246.34;5522408;26;20264;-78
2024/04/23 08:55:38;;;;;;;9.40;5.63;;;;;;;-145.69;44.02;52230.50;5526692;26;20218;-78
2024/04/23 08:58:07;;;;;;;9.33;5.17;;;;;;;-145.69;43.37;52244.38;5526643;26;20292;-77
2024/04/23 09:00:33;;;;;;;9.73;5.70;;;;;;;-145.69;43.23;52234.47;5525507;26;20277;-76
2024/04/23 09:03:02;;;;;;;11.30;6.00;;;;;;;-145.69;42.61;52232.50;5497897;26;20270;-79
2024/04/23 09:05:31;;;;;;;9.03;5.47;;;;;;;-145.69;42.43;52226.53;5504625;25;20724;-77
2024/04/23 09:07:59;;;;;;;10.43;5.90;;;;;;;-145.69;43.97;52222.59;5526280;26;20715;-78
2024/04/23 09:10:26;;;;;;;8.83;6.13;;;;;;;-145.69;44.25;52220.59;5525818;26;20301;-78
2024/04/23 09:12:54;;;;;;;12.30;5.97;;;;;;;-145.69;44.21;52250.31;5523489;26;20233;-77
2024/04/23 09:15:20;;;;;;;9.17;5.40;;;;;;;-145.69;44.42;52218.63;5526239;26;20217;-77
2024/04/23 09:17:58;;;;;;;8.40;5.50;;;;;;;-145.69;43.96;52278.03;5525761;26;20605;-79
2024/04/23 09:20:24;;;;;;;7.53;5.17;;;;;;;-145.69;44.21;52268.13;5491214;26;20219;-77
2024/04/23 09:23:02;;;;;;;9.23;5.53;;;;;;;-145.69;43.89;52260.22;5525322;26;20627;-78
2024/04/23 09:25:33;;;;;;;10.90;5.70;;;;;;;-145.69;45.37;52268.13;5525951;26;20293;-77
2024/04/23 09:28:01;;;;;;;10.37;5.20;;;;;;;-145.69;47.11;52258.22;5525856;26;20217;-80
2024/04/23 09:30:29;;;;;;;7.87;5.17;;;;;;;-145.69;47.47;52317.66;5525130;26;20712;-77
2024/04/23 09:33:01;;;;;;;15.07;5.50;;;;;;;-145.69;47.19;52266.16;5525732;26;20560;-79
2024/04/23 09:35:27;;;;;;;8.90;5.60;;;;;;;-145.69;46.46;52262.19;5520650;26;20260;-76
2024/04/23 09:37:58;;;;;;;8.90;5.43;;;;;;;-145.69;47.09;52282.00;5488746;26;20223;-79
2024/04/23 09:40:23;;;;;;;9.57;6.10;;;;;;;-145.69;47.69;52291.91;5488231;26;20253;-79
2024/04/23 09:42:55;;;;;;;10.67;5.80;;;;;;;-145.69;47.78;52305.75;5510464;26;20708;-80
2024/04/23 09:45:22;;;;;;;8.80;5.37;;;;;;;-145.69;48.96;52264.16;5525625;26;20248;-77
2024/04/23 09:47:50;;;;;;;11.00;6.07;;;;;;;-145.69;47.70;52256.25;5525480;26;20309;-79
2024/04/23 09:50:17;;;;;;;11.63;5.83;;;;;;;-145.69;47.28;52250.31;5525184;26;20273;-76
2024/04/23 09:52:46;;;;;;;12.20;5.60;;;;;;;-145.69;46.55;52285.97;5515784;26;20265;-77
2024/04/23 09:55:16;;;;;;;8.60;5.20;;;;;;;-145.69;46.51;52256.25;5488664;26;20218;-77
2024/04/23 09:57:44;;;;;;;10.67;5.30;;;;;;;-145.69;45.09;52250.31;5489345;26;20227;-77
2024/04/23 10:00:11;;;;;;;8.40;5.00;;;;;;;-145.69;43.68;52248.34;5501711;26;20229;-78
2024/04/23 10:02:40;;;;;;;7.90;4.83;;;;;;;-145.69;41.54;52270.13;5528329;26;20750;-79
2024/04/23 10:05:25;;;;;;;12.43;5.30;;;;;;;-145.69;41.33;52226.53;5528836;26;20260;-77
2024/04/23 10:07:59;;;;;;;10.37;5.97;;;;;;;-145.69;41.08;52242.38;5528613;26;20766;-77
2024/04/23 10:10:36;;;;;;;8.07;4.90;;;;;;;-145.69;41.86;52206.75;5509091;26;20222;-78
2024/04/23 10:13:11;;;;;;;9.17;5.20;;;;;;;-145.69;39.22;52218.63;5517017;26;20684;-78
2024/04/23 10:15:46;;;;;;;8.63;4.90;;;;;;;-145.69;39.09;52238.44;5528893;26;20224;-77
2024/04/23 10:18:22;;;;;;;8.77;4.80;;;;;;;-145.69;38.63;52194.88;5528125;26;20225;-78
2024/04/23 10:20:55;;;;;;;8.63;4.53;;;;;;;-145.69;38.73;52212.69;5527606;26;20217;-77
2024/04/23 10:23:22;;;;;;;9.33;5.17;;;;;;;-145.69;39.29;52210.72;5528732;26;20221;-76
2024/04/23 10:25:54;;;;;;;8.17;4.77;;;;;;;-145.69;38.92;52192.88;5528543;26;20720;-76
2024/04/23 10:28:26;;;;;;;7.67;4.77;;;;;;;-145.69;37.30;52186.94;5526961;26;20240;-76
2024/04/23 10:30:56;;;;;;;8.90;4.90;;;;;;;-145.69;37.62;52179.03;5527969;26;20626;-77
2024/04/23 10:33:30;;;;;;;8.52;5.25;;;;;;;-145.69;37.45;52194.88;5527304;26;20392;-79
2024/04/23 10:36:03;;;;;;;7.13;4.43;;;;;;;-145.69;37.27;52194.88;5528598;26;20591;-78
2024/04/23 10:38:41;;;;;;;6.20;4.20;;;;;;;-145.69;37.46;52145.34;5528056;26;20229;-77
2024/04/23 10:41:13;;;;;;;7.28;4.53;;;;;;;-145.69;37.42;52208.72;5528108;26;20225;-76
2024/04/23 10:43:44;;;;;;;6.73;4.40;;;;;;;-145.69;37.29;52192.88;5519424;26;20227;-77
2024/04/23 10:46:13;;;;;;;7.47;4.20;;;;;;;-145.69;37.51;52188.91;5491546;26;20226;-77
2024/04/23 10:48:43;;;;;;;7.35;4.38;;;;;;;-145.69;37.37;52163.19;5490777;26;20226;-78
2024/04/23 10:51:17;;;;;;;11.67;4.50;;;;;;;-145.69;36.88;52159.22;5501320;26;20230;-76
2024/04/23 10:53:56;;;;;;;7.43;4.75;;;;;;;-145.69;36.08;52163.19;5528586;26;20228;-78
2024/04/23 10:56:32;;;;;;;6.03;3.97;;;;;;;-145.69;36.26;52200.81;5514937;26;20363;-77
2024/04/23 10:59:11;;;;;;;9.15;4.70;;;;;;;-145.69;36.58;52186.94;5495794;26;20261;-78
2024/04/23 11:01:46;;;;;;;6.25;4.32;;;;;;;-145.69;36.84;52173.09;5491067;26;20222;-78
2024/04/23 11:04:18;;;;;;;6.77;4.63;;;;;;;-145.69;36.32;52181.00;5491419;26;20218;-75
2024/04/23 11:06:49;;;;;;;8.70;4.35;;;;;;;-145.69;36.34;52192.88;5491316;26;20287;-76
2024/04/23 11:09:35;;;;;;;5.82;3.67;;;;;;;-145.69;36.47;52179.03;5500606;26;20233;-75
2024/04/23 11:12:15;;;;;;;5.43;3.67;;;;;;;-145.69;35.00;52167.13;5527738;26;20233;-77
2024/04/23 11:14:43;;;;;;;4.78;3.30;;;;;;;-145.69;35.60;52149.31;5527660;26;20233;-76
2024/04/23 11:17:27;;;;;;;6.07;4.40;;;;;;;-145.69;36.58;52147.34;5526882;26;20218;-77
2024/04/23 11:20:09;;;;;;;6.43;4.03;;;;;;;-145.69;34.98;52179.03;5491050;26;20291;-77
2024/04/23 11:22:41;;;;;;;5.80;4.00;;;;;;;-145.69;35.40;52175.06;5521023;26;20233;-76
2024/04/23 11:25:23;;;;;;;5.95;3.90;;;;;;;-145.69;35.35;52135.47;5527043;26;20284;-76